sensor_id;sensor_type;location;lat;lon;timestamp;pressure;altitude;pressure_sealevel;temperature;humidity
63568;BME280;49715;42.386;20.434;2023-03-14T00:00:10;97502.94;;;2.62;56.37
63568;BME280;49715;42.386;20.434;2023-03-14T00:02:36;97505.72;;;2.58;56.44
63568;BME280;49715;42.386;20.434;2023-03-14T00:05:03;97492.00;;;2.56;56.49
63568;BME280;49715;42.386;20.434;2023-03-14T00:07:36;97483.25;;;2.57;56.71
63568;BME280;49715;42.386;20.434;2023-03-14T00:10:08;97475.44;;;2.57;56.48
63568;BME280;49715;42.386;20.434;2023-03-14T00:12:35;97475.34;;;2.59;56.31
63568;BME280;49715;42.386;20.434;2023-03-14T00:15:02;97478.97;;;2.56;56.47
63568;BME280;49715;42.386;20.434;2023-03-14T00:17:33;97474.72;;;2.55;56.62
63568;BME280;49715;42.386;20.434;2023-03-14T00:19:59;97469.63;;;2.54;56.51
63568;BME280;49715;42.386;20.434;2023-03-14T00:22:32;97468.88;;;2.52;56.26
63568;BME280;49715;42.386;20.434;2023-03-14T00:24:58;97446.06;;;2.43;56.78
63568;BME280;49715;42.386;20.434;2023-03-14T00:27:25;97455.97;;;2.50;56.64
63568;BME280;49715;42.386;20.434;2023-03-14T00:29:51;97458.47;;;2.52;56.65
63568;BME280;49715;42.386;20.434;2023-03-14T00:32:17;97452.44;;;2.51;56.58
63568;BME280;49715;42.386;20.434;2023-03-14T00:34:44;97448.81;;;2.54;56.56
63568;BME280;49715;42.386;20.434;2023-03-14T00:37:10;97449.81;;;2.51;56.67
63568;BME280;49715;42.386;20.434;2023-03-14T00:39:38;97445.56;;;2.50;56.78
63568;BME280;49715;42.386;20.434;2023-03-14T00:42:04;97448.16;;;2.50;56.53
63568;BME280;49715;42.386;20.434;2023-03-14T00:44:30;97450.97;;;2.47;56.97
63568;BME280;49715;42.386;20.434;2023-03-14T00:46:57;97448.47;;;2.46;56.97
63568;BME280;49715;42.386;20.434;2023-03-14T00:49:24;97443.97;;;2.48;56.87
63568;BME280;49715;42.386;20.434;2023-03-14T00:51:51;97440.56;;;2.47;57.00
63568;BME280;49715;42.386;20.434;2023-03-14T00:54:18;97436.28;;;2.46;56.88
63568;BME280;49715;42.386;20.434;2023-03-14T00:56:44;97430.25;;;2.46;57.03
63568;BME280;49715;42.386;20.434;2023-03-14T00:59:10;97441.69;;;2.43;57.12
63568;BME280;49715;42.386;20.434;2023-03-14T01:01:36;97437.53;;;2.41;57.09
63568;BME280;49715;42.386;20.434;2023-03-14T01:04:05;97435.88;;;2.40;57.22
63568;BME280;49715;42.386;20.434;2023-03-14T01:06:32;97428.25;;;2.37;57.16
63568;BME280;49715;42.386;20.434;2023-03-14T01:08:58;97428.53;;;2.32;57.09
63568;BME280;49715;42.386;20.434;2023-03-14T01:11:27;97423.81;;;2.24;57.70
63568;BME280;49715;42.386;20.434;2023-03-14T01:13:55;97415.72;;;2.16;58.08
63568;BME280;49715;42.386;20.434;2023-03-14T01:16:22;97414.63;;;2.06;57.34
63568;BME280;49715;42.386;20.434;2023-03-14T01:18:49;97414.16;;;1.99;57.74
63568;BME280;49715;42.386;20.434;2023-03-14T01:23:42;97413.19;;;1.88;57.83
63568;BME280;49715;42.386;20.434;2023-03-14T01:26:10;97416.81;;;1.85;57.97
63568;BME280;49715;42.386;20.434;2023-03-14T01:28:37;97401.22;;;1.85;58.19
63568;BME280;49715;42.386;20.434;2023-03-14T01:31:04;97398.63;;;1.85;58.11
63568;BME280;49715;42.386;20.434;2023-03-14T01:33:30;97399.47;;;1.86;58.01
63568;BME280;49715;42.386;20.434;2023-03-14T01:35:57;97393.41;;;1.85;58.15
63568;BME280;49715;42.386;20.434;2023-03-14T01:38:23;97402.91;;;1.86;58.21
63568;BME280;49715;42.386;20.434;2023-03-14T01:40:49;97392.50;;;1.86;58.02
63568;BME280;49715;42.386;20.434;2023-03-14T01:43:16;97389.09;;;1.86;57.95
63568;BME280;49715;42.386;20.434;2023-03-14T01:48:31;97383.88;;;1.86;58.29
63568;BME280;49715;42.386;20.434;2023-03-14T01:50:59;97381.38;;;1.84;57.90
63568;BME280;49715;42.386;20.434;2023-03-14T01:53:25;97380.63;;;1.82;58.17
63568;BME280;49715;42.386;20.434;2023-03-14T01:55:52;97378.13;;;1.80;58.13
63568;BME280;49715;42.386;20.434;2023-03-14T01:58:19;97374.78;;;1.78;58.08
63568;BME280;49715;42.386;20.434;2023-03-14T02:00:45;97374.91;;;1.77;57.87
63568;BME280;49715;42.386;20.434;2023-03-14T02:03:14;97365.53;;;1.74;58.07
63568;BME280;49715;42.386;20.434;2023-03-14T02:05:41;97362.31;;;1.71;58.17
63568;BME280;49715;42.386;20.434;2023-03-14T02:08:17;97371.22;;;1.67;58.02
63568;BME280;49715;42.386;20.434;2023-03-14T02:10:58;97358.53;;;1.62;58.20
63568;BME280;49715;42.386;20.434;2023-03-14T02:13:37;97367.25;;;1.61;58.46
63568;BME280;49715;42.386;20.434;2023-03-14T02:16:32;97374.19;;;1.61;58.42
63568;BME280;49715;42.386;20.434;2023-03-14T02:19:20;97371.50;;;1.62;58.57
63568;BME280;49715;42.386;20.434;2023-03-14T02:22:16;97357.47;;;1.65;58.50
63568;BME280;49715;42.386;20.434;2023-03-14T02:27:19;97370.47;;;1.65;59.06
63568;BME280;49715;42.386;20.434;2023-03-14T02:29:51;97355.69;;;1.65;58.82
63568;BME280;49715;42.386;20.434;2023-03-14T02:32:19;97354.88;;;1.65;58.25
63568;BME280;49715;42.386;20.434;2023-03-14T02:34:46;97361.13;;;1.62;58.44
63568;BME280;49715;42.386;20.434;2023-03-14T02:37:14;97346.75;;;1.57;58.34
63568;BME280;49715;42.386;20.434;2023-03-14T02:39:43;97342.69;;;1.52;58.60
63568;BME280;49715;42.386;20.434;2023-03-14T02:42:11;97341.00;;;1.51;58.78
63568;BME280;49715;42.386;20.434;2023-03-14T02:44:48;97343.69;;;1.50;58.57
63568;BME280;49715;42.386;20.434;2023-03-14T02:47:16;97348.88;;;1.50;58.77
63568;BME280;49715;42.386;20.434;2023-03-14T02:49:42;97346.28;;;1.50;58.88
63568;BME280;49715;42.386;20.434;2023-03-14T02:52:08;97346.22;;;1.51;58.68
63568;BME280;49715;42.386;20.434;2023-03-14T02:54:35;97349.72;;;1.50;58.58
63568;BME280;49715;42.386;20.434;2023-03-14T02:57:02;97347.22;;;1.49;58.65
63568;BME280;49715;42.386;20.434;2023-03-14T02:59:28;97341.47;;;1.44;58.85
63568;BME280;49715;42.386;20.434;2023-03-14T03:01:59;97345.97;;;1.42;58.84
63568;BME280;49715;42.386;20.434;2023-03-14T03:04:25;97357.25;;;1.41;59.06
63568;BME280;49715;42.386;20.434;2023-03-14T03:06:51;97351.22;;;1.40;58.88
63568;BME280;49715;42.386;20.434;2023-03-14T03:09:18;97353.81;;;1.40;58.85
63568;BME280;49715;42.386;20.434;2023-03-14T03:11:44;97352.25;;;1.38;58.82
63568;BME280;49715;42.386;20.434;2023-03-14T03:14:16;97337.16;;;1.30;59.20
63568;BME280;49715;42.386;20.434;2023-03-14T03:16:42;97347.06;;;1.38;59.14
63568;BME280;49715;42.386;20.434;2023-03-14T03:19:09;97339.28;;;1.38;59.02
63568;BME280;49715;42.386;20.434;2023-03-14T03:21:35;97344.25;;;1.41;59.06
63568;BME280;49715;42.386;20.434;2023-03-14T03:24:01;97338.16;;;1.42;59.29
63568;BME280;49715;42.386;20.434;2023-03-14T03:26:27;97339.72;;;1.44;59.18
63568;BME280;49715;42.386;20.434;2023-03-14T03:28:54;97329.31;;;1.44;59.21
63568;BME280;49715;42.386;20.434;2023-03-14T03:31:22;97329.22;;;1.46;59.54
63568;BME280;49715;42.386;20.434;2023-03-14T03:33:48;97329.16;;;1.47;59.05
63568;BME280;49715;42.386;20.434;2023-03-14T03:36:14;97332.56;;;1.48;58.62
63568;BME280;49715;42.386;20.434;2023-03-14T03:38:40;97333.50;;;1.47;58.68
63568;BME280;49715;42.386;20.434;2023-03-14T03:41:07;97331.09;;;1.44;58.80
63568;BME280;49715;42.386;20.434;2023-03-14T03:43:34;97336.47;;;1.41;59.03
63568;BME280;49715;42.386;20.434;2023-03-14T03:46:04;97338.44;;;1.37;59.20
63568;BME280;49715;42.386;20.434;2023-03-14T03:48:31;97337.69;;;1.35;59.33
63568;BME280;49715;42.386;20.434;2023-03-14T03:50:58;97337.03;;;1.32;59.17
63568;BME280;49715;42.386;20.434;2023-03-14T03:53:24;97330.19;;;1.31;59.28
63568;BME280;49715;42.386;20.434;2023-03-14T03:55:50;97333.91;;;1.26;59.09
63568;BME280;49715;42.386;20.434;2023-03-14T03:58:16;97336.72;;;1.23;59.50
63568;BME280;49715;42.386;20.434;2023-03-14T04:00:43;97336.72;;;1.23;59.46
63568;BME280;49715;42.386;20.434;2023-03-14T04:03:09;97329.84;;;1.22;59.54
63568;BME280;49715;42.386;20.434;2023-03-14T04:05:35;97327.25;;;1.22;59.48
63568;BME280;49715;42.386;20.434;2023-03-14T04:08:07;97337.81;;;1.19;59.64
63568;BME280;49715;42.386;20.434;2023-03-14T04:10:34;97330.41;;;1.13;59.64
63568;BME280;49715;42.386;20.434;2023-03-14T04:13:11;97333.47;;;1.20;59.73
63568;BME280;49715;42.386;20.434;2023-03-14T04:15:39;97334.19;;;1.22;59.64
63568;BME280;49715;42.386;20.434;2023-03-14T04:18:15;97323.78;;;1.22;59.44
63568;BME280;49715;42.386;20.434;2023-03-14T04:20:43;97318.81;;;1.19;59.46
63568;BME280;49715;42.386;20.434;2023-03-14T04:23:10;97322.41;;;1.16;59.52
63568;BME280;49715;42.386;20.434;2023-03-14T04:25:37;97331.16;;;1.15;59.77
63568;BME280;49715;42.386;20.434;2023-03-14T04:28:04;97338.00;;;1.16;59.89
63568;BME280;49715;42.386;20.434;2023-03-14T04:30:32;97330.97;;;1.18;59.69
63568;BME280;49715;42.386;20.434;2023-03-14T04:33:02;97325.84;;;1.17;59.51
63568;BME280;49715;42.386;20.434;2023-03-14T04:35:30;97330.22;;;1.16;59.60
63568;BME280;49715;42.386;20.434;2023-03-14T04:38:00;97310.88;;;1.08;59.51
63568;BME280;49715;42.386;20.434;2023-03-14T04:40:27;97325.13;;;1.15;59.30
63568;BME280;49715;42.386;20.434;2023-03-14T04:42:58;97328.72;;;1.12;59.49
63568;BME280;49715;42.386;20.434;2023-03-14T04:45:24;97329.31;;;1.03;59.38
63568;BME280;49715;42.386;20.434;2023-03-14T04:47:51;97335.25;;;0.91;59.46
63568;BME280;49715;42.386;20.434;2023-03-14T04:50:19;97341.91;;;0.81;59.68
63568;BME280;49715;42.386;20.434;2023-03-14T04:52:46;97333.75;;;0.72;60.04
63568;BME280;49715;42.386;20.434;2023-03-14T04:55:13;97340.91;;;0.69;60.01
63568;BME280;49715;42.386;20.434;2023-03-14T04:57:39;97344.50;;;0.66;60.41
63568;BME280;49715;42.386;20.434;2023-03-14T05:00:08;97342.28;;;0.60;60.31
63568;BME280;49715;42.386;20.434;2023-03-14T05:02:55;97349.28;;;0.58;60.43
63568;BME280;49715;42.386;20.434;2023-03-14T05:05:21;97349.28;;;0.58;60.50
63568;BME280;49715;42.386;20.434;2023-03-14T05:08:07;97344.03;;;0.60;60.43
63568;BME280;49715;42.386;20.434;2023-03-14T05:10:36;97343.94;;;0.61;60.59
63568;BME280;49715;42.386;20.434;2023-03-14T05:13:11;97341.25;;;0.63;60.52
63568;BME280;49715;42.386;20.434;2023-03-14T05:16:07;97341.72;;;0.69;60.68
63568;BME280;49715;42.386;20.434;2023-03-14T05:19:00;97337.00;;;0.76;60.54
63568;BME280;49715;42.386;20.434;2023-03-14T05:21:52;97337.47;;;0.83;60.49
63568;BME280;49715;42.386;20.434;2023-03-14T05:24:18;97345.72;;;0.89;60.31
63568;BME280;49715;42.386;20.434;2023-03-14T05:27:10;97342.66;;;0.97;60.34
63568;BME280;49715;42.386;20.434;2023-03-14T05:29:56;97334.50;;;1.03;60.19
63568;BME280;49715;42.386;20.434;2023-03-14T05:32:41;97331.63;;;1.08;60.09
63568;BME280;49715;42.386;20.434;2023-03-14T05:35:26;97331.31;;;1.12;60.21
63568;BME280;49715;42.386;20.434;2023-03-14T05:38:06;97337.16;;;1.16;60.56
63568;BME280;49715;42.386;20.434;2023-03-14T05:40:32;97337.72;;;1.21;60.51
63568;BME280;49715;42.386;20.434;2023-03-14T05:43:11;97333.06;;;1.26;60.39
63568;BME280;49715;42.386;20.434;2023-03-14T05:45:37;97326.75;;;1.30;60.31
63568;BME280;49715;42.386;20.434;2023-03-14T05:48:12;97326.38;;;1.36;60.16
63568;BME280;49715;42.386;20.434;2023-03-14T05:50:57;97329.50;;;1.41;60.32
63568;BME280;49715;42.386;20.434;2023-03-14T05:53:43;97330.69;;;1.50;59.89
63568;BME280;49715;42.386;20.434;2023-03-14T05:56:30;97324.94;;;1.59;60.32
63568;BME280;49715;42.386;20.434;2023-03-14T05:59:08;97325.28;;;1.67;60.07
63568;BME280;49715;42.386;20.434;2023-03-14T06:01:58;97326.47;;;1.76;59.72
63568;BME280;49715;42.386;20.434;2023-03-14T06:04:27;97328.56;;;1.84;59.58
63568;BME280;49715;42.386;20.434;2023-03-14T06:06:58;97330.66;;;1.91;59.85
63568;BME280;49715;42.386;20.434;2023-03-14T06:09:24;97331.81;;;2.00;59.66
63568;BME280;49715;42.386;20.434;2023-03-14T06:11:54;97330.38;;;2.09;59.44
63568;BME280;49715;42.386;20.434;2023-03-14T06:14:21;97322.94;;;2.17;59.24
63568;BME280;49715;42.386;20.434;2023-03-14T06:16:49;97318.97;;;2.24;59.42
63568;BME280;49715;42.386;20.434;2023-03-14T06:19:18;97320.03;;;2.34;59.19
63568;BME280;49715;42.386;20.434;2023-03-14T06:21:44;97316.72;;;2.45;58.89
63568;BME280;49715;42.386;20.434;2023-03-14T06:24:10;97307.38;;;2.55;58.81
63568;BME280;49715;42.386;20.434;2023-03-14T06:26:55;97309.44;;;2.63;59.64
63568;BME280;49715;42.386;20.434;2023-03-14T06:29:42;97316.63;;;2.72;59.06
63568;BME280;49715;42.386;20.434;2023-03-14T06:32:32;97308.31;;;2.79;59.16
63568;BME280;49715;42.386;20.434;2023-03-14T06:35:14;97306.94;;;2.87;59.23
63568;BME280;49715;42.386;20.434;2023-03-14T16:32:10;96407.66;;;14.55;32.39
63568;BME280;49715;42.386;20.434;2023-03-14T16:35:53;96413.31;;;14.46;32.93
63568;BME280;49715;42.386;20.434;2023-03-14T16:39:08;96405.09;;;14.34;32.68
63568;BME280;49715;42.386;20.434;2023-03-14T16:41:37;96400.81;;;14.26;33.32
63568;BME280;49715;42.386;20.434;2023-03-14T16:55:21;96393.81;;;14.12;33.85
63568;BME280;49715;42.386;20.434;2023-03-14T16:57:48;96384.19;;;14.04;32.76
63568;BME280;49715;42.386;20.434;2023-03-14T17:00:17;96393.19;;;14.10;33.97
63568;BME280;49715;42.386;20.434;2023-03-14T17:02:44;96384.41;;;14.09;34.01
63568;BME280;49715;42.386;20.434;2023-03-14T17:05:11;96392.34;;;14.09;33.65
63568;BME280;49715;42.386;20.434;2023-03-14T17:08:02;96394.03;;;14.10;33.68
63568;BME280;49715;42.386;20.434;2023-03-14T17:10:29;96383.59;;;14.09;33.98
63568;BME280;49715;42.386;20.434;2023-03-14T17:13:07;96394.41;;;14.07;32.30
63568;BME280;49715;42.386;20.434;2023-03-14T17:15:33;96387.06;;;14.09;33.83
63568;BME280;49715;42.386;20.434;2023-03-14T17:18:00;96394.03;;;14.10;33.58
63568;BME280;49715;42.386;20.434;2023-03-14T17:20:28;96387.06;;;14.09;33.62
63568;BME280;49715;42.386;20.434;2023-03-14T17:22:56;96389.72;;;14.09;34.09
63568;BME280;49715;42.386;20.434;2023-03-14T17:25:49;96383.00;;;14.07;34.24
63568;BME280;49715;42.386;20.434;2023-03-14T17:28:16;96381.75;;;14.03;34.37
63568;BME280;49715;42.386;20.434;2023-03-14T17:30:43;96385.78;;;13.99;33.50
63568;BME280;49715;42.386;20.434;2023-03-14T17:33:10;96374.97;;;13.94;34.60
63568;BME280;49715;42.386;20.434;2023-03-14T17:35:36;96391.66;;;13.87;34.07
63568;BME280;49715;42.386;20.434;2023-03-14T17:38:03;96372.09;;;13.82;34.22
63568;BME280;49715;42.386;20.434;2023-03-14T17:40:30;96373.28;;;13.79;34.11
63568;BME280;49715;42.386;20.434;2023-03-14T17:42:57;96370.03;;;13.77;35.33
63568;BME280;49715;42.386;20.434;2023-03-14T17:45:23;96392.81;;;13.72;34.68
63568;BME280;49715;42.386;20.434;2023-03-14T17:47:49;96363.47;;;13.67;34.99
63568;BME280;49715;42.386;20.434;2023-03-14T17:50:16;96364.84;;;13.62;34.88
63568;BME280;49715;42.386;20.434;2023-03-14T17:52:42;96361.97;;;13.57;34.83
63568;BME280;49715;42.386;20.434;2023-03-14T17:55:08;96370.28;;;13.54;35.00
63568;BME280;49715;42.386;20.434;2023-03-14T17:57:39;96368.88;;;13.52;35.27
63568;BME280;49715;42.386;20.434;2023-03-14T18:00:06;96370.06;;;13.49;35.18
63568;BME280;49715;42.386;20.434;2023-03-14T18:02:36;96372.72;;;13.49;35.14
63568;BME280;49715;42.386;20.434;2023-03-14T18:05:02;96370.28;;;13.48;35.37
63568;BME280;49715;42.386;20.434;2023-03-14T18:07:31;96369.84;;;13.44;35.05
63568;BME280;49715;42.386;20.434;2023-03-14T18:09:59;96362.47;;;13.39;35.06
63568;BME280;49715;42.386;20.434;2023-03-14T18:12:25;96362.25;;;13.34;35.43
63568;BME280;49715;42.386;20.434;2023-03-14T18:14:54;96358.34;;;13.30;36.10
63568;BME280;49715;42.386;20.434;2023-03-14T18:17:20;96368.06;;;13.23;36.25
63568;BME280;49715;42.386;20.434;2023-03-14T18:19:48;96361.88;;;13.16;35.54
63568;BME280;49715;42.386;20.434;2023-03-14T18:22:16;96363.66;;;13.09;35.07
63568;BME280;49715;42.386;20.434;2023-03-14T18:24:44;96352.03;;;13.03;35.14
63568;BME280;49715;42.386;20.434;2023-03-14T18:27:11;96350.94;;;12.98;35.07
63568;BME280;49715;42.386;20.434;2023-03-14T18:29:40;96352.16;;;12.95;35.06
63568;BME280;49715;42.386;20.434;2023-03-14T18:32:07;96356.19;;;12.91;35.94
63568;BME280;49715;42.386;20.434;2023-03-14T18:34:35;96358.22;;;12.89;34.02
63568;BME280;49715;42.386;20.434;2023-03-14T18:37:01;96348.63;;;12.88;35.12
63568;BME280;49715;42.386;20.434;2023-03-14T18:39:28;96349.84;;;12.85;34.72
63568;BME280;49715;42.386;20.434;2023-03-14T18:41:54;96348.00;;;12.86;33.98
63568;BME280;49715;42.386;20.434;2023-03-14T18:44:20;96362.03;;;12.86;35.43
63568;BME280;49715;42.386;20.434;2023-03-14T18:46:47;96348.00;;;12.86;34.28
63568;BME280;49715;42.386;20.434;2023-03-14T18:49:15;96341.91;;;12.85;34.58
63568;BME280;49715;42.386;20.434;2023-03-14T18:51:42;96344.56;;;12.85;33.86
63568;BME280;49715;42.386;20.434;2023-03-14T18:54:09;96347.19;;;12.85;33.54
63568;BME280;49715;42.386;20.434;2023-03-14T18:56:37;96344.56;;;12.85;34.72
63568;BME280;49715;42.386;20.434;2023-03-14T18:59:04;96341.28;;;12.83;32.83
63568;BME280;49715;42.386;20.434;2023-03-14T19:01:30;96343.09;;;12.83;34.08
63568;BME280;49715;42.386;20.434;2023-03-14T19:03:59;96338.00;;;12.81;34.51
63568;BME280;49715;42.386;20.434;2023-03-14T19:06:26;96341.00;;;12.78;35.15
63568;BME280;49715;42.386;20.434;2023-03-14T19:08:53;96344.06;;;12.75;33.22
63568;BME280;49715;42.386;20.434;2023-03-14T19:14:13;96350.13;;;12.69;33.86
63568;BME280;49715;42.386;20.434;2023-03-14T19:16:46;96347.47;;;12.69;34.16
63568;BME280;49715;42.386;20.434;2023-03-14T19:19:26;96338.09;;;12.67;34.04
63568;BME280;49715;42.386;20.434;2023-03-14T19:21:52;96329.34;;;12.66;34.71
63568;BME280;49715;42.386;20.434;2023-03-14T19:24:21;96331.38;;;12.64;34.56
63568;BME280;49715;42.386;20.434;2023-03-14T19:27:20;96321.97;;;12.61;35.17
63568;BME280;49715;42.386;20.434;2023-03-14T19:29:48;96323.00;;;12.60;34.96
63568;BME280;49715;42.386;20.434;2023-03-14T19:32:19;96322.78;;;12.62;35.25
63568;BME280;49715;42.386;20.434;2023-03-14T19:34:47;96317.31;;;12.63;34.96
63568;BME280;49715;42.386;20.434;2023-03-14T19:37:13;96305.53;;;12.66;34.69
63568;BME280;49715;42.386;20.434;2023-03-14T19:39:41;96313.28;;;12.68;33.30
63568;BME280;49715;42.386;20.434;2023-03-14T19:42:10;96307.25;;;12.74;33.83
63568;BME280;49715;42.386;20.434;2023-03-14T19:44:37;96308.47;;;12.78;34.15
63568;BME280;49715;42.386;20.434;2023-03-14T19:47:03;96305.47;;;12.81;32.75
63568;BME280;49715;42.386;20.434;2023-03-14T19:49:30;96303.06;;;12.86;34.94
63568;BME280;49715;42.386;20.434;2023-03-14T19:51:58;96303.66;;;12.88;33.71
63568;BME280;49715;42.386;20.434;2023-03-14T19:54:24;96296.75;;;12.87;32.97
63568;BME280;49715;42.386;20.434;2023-03-14T19:56:51;96301.09;;;12.95;34.56
63568;BME280;49715;42.386;20.434;2023-03-14T19:59:18;96293.75;;;12.97;34.57
63568;BME280;49715;42.386;20.434;2023-03-14T20:01:44;96293.59;;;12.98;32.49
63568;BME280;49715;42.386;20.434;2023-03-14T20:04:13;96284.41;;;12.94;33.13
63568;BME280;49715;42.386;20.434;2023-03-14T20:06:40;96301.56;;;13.05;34.19
63568;BME280;49715;42.386;20.434;2023-03-14T20:09:09;96285.50;;;13.06;33.62
63568;BME280;49715;42.386;20.434;2023-03-14T20:11:36;96291.81;;;13.05;34.96
63568;BME280;49715;42.386;20.434;2023-03-14T20:14:06;96293.75;;;12.97;35.14
63568;BME280;49715;42.386;20.434;2023-03-14T20:16:33;96294.91;;;12.87;35.30
63568;BME280;49715;42.386;20.434;2023-03-14T20:19:03;96291.78;;;12.77;35.38
63568;BME280;49715;42.386;20.434;2023-03-14T20:21:29;96285.81;;;12.69;35.75
63568;BME280;49715;42.386;20.434;2023-03-14T20:23:56;96288.44;;;12.62;36.29
63568;BME280;49715;42.386;20.434;2023-03-14T20:26:23;96275.16;;;12.55;36.46
63568;BME280;49715;42.386;20.434;2023-03-14T20:28:49;96276.56;;;12.51;36.66
63568;BME280;49715;42.386;20.434;2023-03-14T20:31:15;96271.63;;;12.48;36.17
63568;BME280;49715;42.386;20.434;2023-03-14T20:33:41;96271.03;;;12.46;36.67
63568;BME280;49715;42.386;20.434;2023-03-14T20:36:08;96271.22;;;12.45;36.89
63568;BME280;49715;42.386;20.434;2023-03-14T20:38:34;96261.84;;;12.42;36.85
63568;BME280;49715;42.386;20.434;2023-03-14T20:41:09;96273.78;;;12.38;37.21
63568;BME280;49715;42.386;20.434;2023-03-14T20:43:39;96272.09;;;12.30;37.53
63568;BME280;49715;42.386;20.434;2023-03-14T20:46:07;96275.47;;;12.24;37.94
63568;BME280;49715;42.386;20.434;2023-03-14T20:48:33;96280.72;;;12.18;37.84
63568;BME280;49715;42.386;20.434;2023-03-14T20:50:59;96271.06;;;12.10;38.22
63568;BME280;49715;42.386;20.434;2023-03-14T20:53:27;96276.09;;;12.05;38.27
63568;BME280;49715;42.386;20.434;2023-03-14T20:55:55;96276.03;;;11.98;38.28
63568;BME280;49715;42.386;20.434;2023-03-14T20:58:22;96274.31;;;11.91;38.51
63568;BME280;49715;42.386;20.434;2023-03-14T21:00:49;96269.19;;;11.82;38.87
63568;BME280;49715;42.386;20.434;2023-03-14T21:03:16;96259.72;;;11.73;39.15
63568;BME280;49715;42.386;20.434;2023-03-14T21:05:43;96259.19;;;11.63;39.44
63568;BME280;49715;42.386;20.434;2023-03-14T21:08:12;96263.13;;;11.52;39.71
63568;BME280;49715;42.386;20.434;2023-03-14T21:10:38;96255.50;;;11.43;39.61
63568;BME280;49715;42.386;20.434;2023-03-14T21:13:06;96251.94;;;11.35;40.08
63568;BME280;49715;42.386;20.434;2023-03-14T21:15:34;96251.88;;;11.29;40.13
63568;BME280;49715;42.386;20.434;2023-03-14T21:18:01;96255.59;;;11.20;40.18
63568;BME280;49715;42.386;20.434;2023-03-14T21:20:31;96235.13;;;11.07;40.38
63568;BME280;49715;42.386;20.434;2023-03-14T21:22:57;96241.41;;;11.06;40.61
63568;BME280;49715;42.386;20.434;2023-03-14T21:25:24;96242.16;;;11.00;40.45
63568;BME280;49715;42.386;20.434;2023-03-14T21:27:50;96241.88;;;10.95;40.34
63568;BME280;49715;42.386;20.434;2023-03-14T21:30:16;96244.06;;;10.91;40.73
63568;BME280;49715;42.386;20.434;2023-03-14T21:32:44;96233.97;;;10.80;40.59
63568;BME280;49715;42.386;20.434;2023-03-14T21:35:10;96252.69;;;10.85;40.58
63568;BME280;49715;42.386;20.434;2023-03-14T21:37:37;96240.69;;;10.82;40.62
63568;BME280;49715;42.386;20.434;2023-03-14T21:40:03;96242.88;;;10.79;40.59
63568;BME280;49715;42.386;20.434;2023-03-14T21:42:34;96244.88;;;10.77;40.66
63568;BME280;49715;42.386;20.434;2023-03-14T21:45:00;96252.16;;;10.75;40.74
63568;BME280;49715;42.386;20.434;2023-03-14T21:47:26;96241.94;;;10.72;40.67
63568;BME280;49715;42.386;20.434;2023-03-14T21:49:53;96256.31;;;10.69;40.91
63568;BME280;49715;42.386;20.434;2023-03-14T21:52:20;96246.13;;;10.66;41.50
63568;BME280;49715;42.386;20.434;2023-03-14T21:54:49;96249.84;;;10.57;41.25
63568;BME280;49715;42.386;20.434;2023-03-14T21:57:15;96252.19;;;10.52;41.15
63568;BME280;49715;42.386;20.434;2023-03-14T21:59:42;96254.53;;;10.47;41.22
63568;BME280;49715;42.386;20.434;2023-03-14T22:02:12;96252.44;;;10.42;41.22
63568;BME280;49715;42.386;20.434;2023-03-14T22:04:39;96249.34;;;10.39;41.26
63568;BME280;49715;42.386;20.434;2023-03-14T22:07:07;96235.72;;;10.35;41.65
63568;BME280;49715;42.386;20.434;2023-03-14T22:09:33;96235.59;;;10.28;41.49
63568;BME280;49715;42.386;20.434;2023-03-14T22:12:00;96237.91;;;10.23;41.66
63568;BME280;49715;42.386;20.434;2023-03-14T22:14:27;96232.38;;;10.18;41.56
63568;BME280;49715;42.386;20.434;2023-03-14T22:16:54;96240.78;;;10.14;41.74
63568;BME280;49715;42.386;20.434;2023-03-14T22:19:21;96236.88;;;10.10;41.64
63568;BME280;49715;42.386;20.434;2023-03-14T22:21:47;96238.06;;;10.07;41.60
63568;BME280;49715;42.386;20.434;2023-03-14T22:24:14;96237.28;;;9.98;41.52
63568;BME280;49715;42.386;20.434;2023-03-14T22:26:41;96240.22;;;10.03;41.55
63568;BME280;49715;42.386;20.434;2023-03-14T22:29:07;96245.66;;;10.02;41.75
63568;BME280;49715;42.386;20.434;2023-03-14T22:31:33;96231.84;;;10.00;41.59
63568;BME280;49715;42.386;20.434;2023-03-14T22:33:59;96240.91;;;9.97;41.47
63568;BME280;49715;42.386;20.434;2023-03-14T22:36:28;96234.19;;;9.95;41.81
63568;BME280;49715;42.386;20.434;2023-03-14T22:38:59;96232.56;;;9.94;41.61
63568;BME280;49715;42.386;20.434;2023-03-14T22:41:26;96232.72;;;9.92;41.65
63568;BME280;49715;42.386;20.434;2023-03-14T22:43:53;96229.09;;;9.93;41.51
63568;BME280;49715;42.386;20.434;2023-03-14T22:46:20;96233.72;;;9.91;41.66
63568;BME280;49715;42.386;20.434;2023-03-14T22:48:46;96224.69;;;9.86;41.58
63568;BME280;49715;42.386;20.434;2023-03-14T22:51:12;96234.06;;;9.88;41.79
63568;BME280;49715;42.386;20.434;2023-03-14T22:53:39;96235.06;;;9.87;41.68
63568;BME280;49715;42.386;20.434;2023-03-14T22:56:06;96231.63;;;9.87;41.81
63568;BME280;49715;42.386;20.434;2023-03-14T22:58:34;96226.38;;;9.87;41.76
63568;BME280;49715;42.386;20.434;2023-03-14T23:01:04;96222.91;;;9.86;41.91
63568;BME280;49715;42.386;20.434;2023-03-14T23:03:34;96223.06;;;9.85;41.77
63568;BME280;49715;42.386;20.434;2023-03-14T23:06:04;96223.88;;;9.85;41.90
63568;BME280;49715;42.386;20.434;2023-03-14T23:08:31;96227.34;;;9.86;41.91
63568;BME280;49715;42.386;20.434;2023-03-14T23:10:59;96225.56;;;9.86;42.03
63568;BME280;49715;42.386;20.434;2023-03-14T23:13:26;96226.38;;;9.87;42.17
63568;BME280;49715;42.386;20.434;2023-03-14T23:15:52;96232.44;;;9.87;42.07
63568;BME280;49715;42.386;20.434;2023-03-14T23:18:19;96216.50;;;9.80;42.07
63568;BME280;49715;42.386;20.434;2023-03-14T23:20:45;96224.38;;;9.89;42.20
63568;BME280;49715;42.386;20.434;2023-03-14T23:23:13;96213.84;;;9.89;42.19